Time;durP1;ratioP1;P1;durP2;ratioP2;P2;SDS_P1;SDS_P2;PMS_P1;PMS_P2;Temp;Humidity;BMP_temperature;BMP_pressure;BME280_temperature;BME280_humidity;BME280_pressure;Samples;Min_cycle;Max_cycle;Signal;HPM_P1;HPM_P2
2023/12/04 00:01:34;;;;;;;43.63;20.08;;;;;;;-5.25;100.00;96789.28;5064338;28;20078;-70
2023/12/04 00:04:01;;;;;;;41.05;19.52;;;;;;;-5.27;100.00;96772.72;5081682;28;20089;-72
2023/12/04 00:06:27;;;;;;;39.78;19.00;;;;;;;-5.21;100.00;96769.78;5077683;28;20051;-72
2023/12/04 00:08:52;;;;;;;41.65;19.08;;;;;;;-5.29;100.00;96772.19;5082687;28;20044;-71
2023/12/04 00:11:17;;;;;;;45.78;21.75;;;;;;;-5.28;100.00;96760.44;5072204;28;20098;-72
2023/12/04 00:13:43;;;;;;;45.20;21.73;;;;;;;-5.22;100.00;96764.72;5069081;28;20513;-72
2023/12/04 00:16:09;;;;;;;43.03;19.38;;;;;;;-5.24;100.00;96756.16;5078761;28;20047;-73
2023/12/04 00:18:34;;;;;;;42.28;18.17;;;;;;;-5.22;100.00;96752.19;5077349;28;20051;-73
2023/12/04 00:20:59;;;;;;;35.38;17.27;;;;;;;-5.12;100.00;96755.94;5095315;28;20802;-72
2023/12/04 00:23:25;;;;;;;43.20;19.27;;;;;;;-5.14;100.00;96750.84;5092633;28;20044;-71
2023/12/04 00:25:50;;;;;;;43.05;21.02;;;;;;;-5.07;100.00;96745.25;5074458;28;20056;-71
2023/12/04 00:28:16;;;;;;;41.40;19.27;;;;;;;-5.06;100.00;96733.50;5067771;28;20050;-70
2023/12/04 00:30:41;;;;;;;48.90;25.50;;;;;;;-5.01;100.00;96739.63;5074271;28;20431;-71
2023/12/04 00:33:07;;;;;;;40.17;19.42;;;;;;;-4.93;100.00;96732.16;5067300;28;20047;-74
2023/12/04 00:35:32;;;;;;;39.15;18.10;;;;;;;-4.87;100.00;96731.13;5051681;28;20032;-72
2023/12/04 00:37:57;;;;;;;43.20;19.85;;;;;;;-4.85;100.00;96737.78;5050004;28;20037;-72
2023/12/04 00:40:23;;;;;;;39.60;18.50;;;;;;;-4.94;100.00;96736.72;5066668;28;20052;-72
2023/12/04 00:42:48;;;;;;;42.92;19.88;;;;;;;-4.90;100.00;96731.66;5063134;28;20043;-71
2023/12/04 00:45:14;;;;;;;40.53;20.15;;;;;;;-4.92;100.00;96739.13;5062748;28;20072;-72
2023/12/04 00:47:39;;;;;;;44.35;20.83;;;;;;;-5.02;100.00;96727.38;5077306;28;20140;-73
2023/12/04 00:50:05;;;;;;;40.08;20.85;;;;;;;-5.01;100.00;96723.63;5062118;28;20214;-70
2023/12/04 00:52:30;;;;;;;36.67;17.55;;;;;;;-4.98;100.00;96721.50;5064418;28;20040;-73
2023/12/04 00:54:56;;;;;;;40.00;18.42;;;;;;;-5.02;100.00;96719.34;5065464;28;20040;-71
2023/12/04 00:57:21;;;;;;;38.63;18.48;;;;;;;-4.93;100.00;96714.28;5055253;28;20295;-73
2023/12/04 00:59:47;;;;;;;44.08;18.95;;;;;;;-4.88;100.00;96711.63;5068989;28;20056;-71
2023/12/04 01:02:12;;;;;;;41.00;19.70;;;;;;;-4.94;100.00;96712.69;5060553;28;20040;-72
2023/12/04 01:04:43;;;;;;;45.13;20.13;;;;;;;-4.85;100.00;96705.72;5059602;28;20402;-69
2023/12/04 01:07:09;;;;;;;41.65;18.48;;;;;;;-4.83;100.00;96700.91;5063112;28;20036;-70
2023/12/04 01:09:35;;;;;;;42.80;19.70;;;;;;;-4.77;100.00;96706.25;5064262;28;20051;-71
2023/12/04 01:12:01;;;;;;;46.63;19.08;;;;;;;-4.76;100.00;96707.88;5049783;28;20032;-69
2023/12/04 01:14:26;;;;;;;45.10;20.30;;;;;;;-4.75;100.00;96704.13;5046000;28;20047;-70
2023/12/04 01:16:52;;;;;;;39.20;18.92;;;;;;;-4.70;100.00;96701.44;5050838;28;20049;-70
2023/12/04 01:19:17;;;;;;;48.90;22.27;;;;;;;-4.64;100.00;96695.84;5062967;28;20523;-71
2023/12/04 01:21:42;;;;;;;45.22;20.42;;;;;;;-4.71;100.00;96697.19;5028082;28;20045;-71
2023/12/04 01:24:08;;;;;;;45.63;21.02;;;;;;;-4.81;100.00;96701.47;5077566;28;20036;-71
2023/12/04 01:26:33;;;;;;;53.97;23.15;;;;;;;-4.83;100.00;96700.13;5074572;28;20071;-71
2023/12/04 01:28:59;;;;;;;49.53;21.80;;;;;;;-4.77;100.00;96699.06;5068338;28;20040;-71
2023/12/04 01:31:24;;;;;;;47.00;21.42;;;;;;;-4.74;100.00;96711.09;5069767;28;20044;-70
2023/12/04 01:33:50;;;;;;;50.55;20.65;;;;;;;-4.73;100.00;96713.50;5081470;28;20494;-70
2023/12/04 01:36:15;;;;;;;45.88;21.33;;;;;;;-4.67;100.00;96701.72;5064002;28;20037;-71
2023/12/04 01:38:41;;;;;;;49.33;21.67;;;;;;;-4.62;100.00;96701.72;5071148;28;20072;-70
2023/12/04 01:41:06;;;;;;;46.00;20.00;;;;;;;-4.70;100.00;96699.59;5062996;28;20032;-70
2023/12/04 01:43:32;;;;;;;52.78;21.25;;;;;;;-4.68;100.00;96710.81;5076287;28;20056;-72
2023/12/04 01:46:00;;;;;;;48.58;21.98;;;;;;;-4.62;100.00;96700.91;5053104;28;20087;-71
2023/12/04 01:48:26;;;;;;;55.65;23.15;;;;;;;-4.58;100.00;96701.97;5059357;28;20101;-69
2023/12/04 01:50:52;;;;;;;55.40;22.27;;;;;;;-4.54;100.00;96696.91;5070901;28;20054;-68
2023/12/04 01:53:18;;;;;;;51.40;22.85;;;;;;;-4.48;100.00;96695.84;5057361;28;20048;-68
2023/12/04 01:55:45;;;;;;;55.13;21.92;;;;;;;-4.50;100.00;96706.78;5061445;28;20372;-69
2023/12/04 01:58:11;;;;;;;55.17;22.02;;;;;;;-4.63;100.00;96710.00;5065586;28;20690;-70
2023/12/04 02:00:37;;;;;;;49.10;22.10;;;;;;;-4.60;100.00;96704.13;5064202;28;20110;-68
2023/12/04 02:03:02;;;;;;;48.72;21.42;;;;;;;-4.55;100.00;96700.66;5070041;28;20040;-68
2023/12/04 02:05:28;;;;;;;47.22;21.92;;;;;;;-4.40;100.00;96702.50;5066429;28;20502;-70
2023/12/04 02:07:55;;;;;;;47.50;19.65;;;;;;;-4.50;100.00;96693.44;5062390;28;20043;-70
2023/12/04 02:10:21;;;;;;;50.55;22.30;;;;;;;-4.44;100.00;96697.69;5071964;28;20043;-70
2023/12/04 02:12:47;;;;;;;48.92;22.05;;;;;;;-4.31;100.00;96706.22;5062175;28;20400;-70
2023/12/04 02:15:13;;;;;;;48.97;21.30;;;;;;;-4.42;100.00;96708.91;5050439;28;20108;-70
2023/12/04 02:17:39;;;;;;;49.40;21.55;;;;;;;-4.36;100.00;96695.53;5071540;28;20077;-71
2023/12/04 02:20:05;;;;;;;49.75;21.48;;;;;;;-4.35;100.00;96697.16;5057333;28;20102;-70
2023/12/04 02:22:31;;;;;;;53.15;21.50;;;;;;;-4.35;100.00;96697.16;5062720;28;20123;-71
2023/12/04 02:24:59;;;;;;;46.42;20.05;;;;;;;-4.40;100.00;96697.16;5065431;28;20372;-71
2023/12/04 02:27:40;;;;;;;57.28;23.02;;;;;;;-4.52;100.00;96692.91;5077152;28;20051;-71
2023/12/04 02:30:10;;;;;;;54.10;22.48;;;;;;;-4.53;100.00;96687.81;5078607;28;20135;-69
2023/12/04 02:32:42;;;;;;;51.58;21.73;;;;;;;-4.48;100.00;96685.94;5098874;28;20052;-71
2023/12/04 02:35:09;;;;;;;50.95;20.75;;;;;;;-4.50;100.00;96687.25;5077150;28;20128;-70
2023/12/04 02:37:35;;;;;;;51.15;21.20;;;;;;;-4.58;100.00;96677.13;5096030;28;20195;-70
2023/12/04 02:40:02;;;;;;;46.78;19.67;;;;;;;-4.53;100.00;96677.13;5085416;28;20044;-70
2023/12/04 02:42:27;;;;;;;45.67;21.15;;;;;;;-4.50;100.00;96688.06;5089395;28;20106;-71
2023/12/04 02:44:53;;;;;;;49.20;21.45;;;;;;;-4.55;100.00;96681.94;5086610;28;20040;-71
2023/12/04 02:47:19;;;;;;;46.65;20.33;;;;;;;-4.48;100.00;96677.13;5070619;28;20132;-70
2023/12/04 02:49:44;;;;;;;52.53;20.98;;;;;;;-4.51;100.00;96669.63;5070234;28;20094;-70
2023/12/04 02:52:10;;;;;;;50.50;21.27;;;;;;;-4.54;100.00;96665.59;5073057;28;20108;-73
2023/12/04 02:54:35;;;;;;;55.38;21.52;;;;;;;-4.53;100.00;96664.56;5069607;28;20044;-70
2023/12/04 02:57:02;;;;;;;47.90;20.55;;;;;;;-4.58;100.00;96659.22;5053740;28;20143;-69
2023/12/04 02:59:28;;;;;;;49.90;21.60;;;;;;;-4.56;100.00;96653.59;5052991;28;20127;-69
2023/12/04 03:01:53;;;;;;;47.30;19.48;;;;;;;-4.66;100.00;96654.44;5067166;28;20044;-70
2023/12/04 03:04:19;;;;;;;50.10;22.08;;;;;;;-4.56;100.00;96659.75;5037019;28;20079;-69
2023/12/04 03:06:45;;;;;;;49.58;20.77;;;;;;;-4.56;100.00;96645.59;5078220;28;20098;-69
2023/12/04 03:09:11;;;;;;;53.15;21.45;;;;;;;-4.65;100.00;96643.44;5075518;28;20044;-69
2023/12/04 03:11:39;;;;;;;44.10;21.02;;;;;;;-4.71;100.00;96639.19;5062123;28;20048;-69
2023/12/04 03:14:04;;;;;;;45.58;20.60;;;;;;;-4.65;100.00;96650.66;5043322;28;20048;-69
2023/12/04 03:16:30;;;;;;;50.90;20.00;;;;;;;-4.72;100.00;96636.78;5082135;28;20559;-69
2023/12/04 03:18:55;;;;;;;51.13;21.13;;;;;;;-4.77;100.00;96634.94;5058167;28;20079;-71
2023/12/04 03:21:20;;;;;;;53.08;21.27;;;;;;;-4.74;100.00;96626.34;5048114;28;20585;-69
2023/12/04 03:23:46;;;;;;;56.42;22.70;;;;;;;-4.72;100.00;96629.56;5048335;28;20045;-69
2023/12/04 03:26:11;;;;;;;55.17;23.23;;;;;;;-4.72;100.00;96620.75;5068535;28;20470;-70
2023/12/04 03:28:38;;;;;;;54.90;20.63;;;;;;;-4.69;100.00;96618.34;5080668;28;20040;-71
2023/12/04 03:31:04;;;;;;;54.38;21.02;;;;;;;-4.73;100.00;96613.81;5076894;28;20043;-69
2023/12/04 03:33:29;;;;;;;50.58;19.63;;;;;;;-4.70;100.00;96605.25;5080527;28;20051;-70
2023/12/04 03:35:55;;;;;;;49.22;21.50;;;;;;;-4.68;100.00;96619.13;5077837;28;20048;-69
2023/12/04 03:38:20;;;;;;;47.63;18.77;;;;;;;-4.69;100.00;96618.34;5069811;28;20056;-69
2023/12/04 03:40:45;;;;;;;56.00;21.15;;;;;;;-4.73;100.00;96619.16;5045884;28;20511;-69
2023/12/04 03:43:11;;;;;;;51.13;19.77;;;;;;;-4.72;100.00;96618.06;5068348;28;20044;-70
2023/12/04 03:45:36;;;;;;;57.47;19.90;;;;;;;-4.72;100.00;96613.53;5080487;28;20055;-71
2023/12/04 03:48:01;;;;;;;54.63;20.83;;;;;;;-4.76;100.00;96614.34;5067733;28;20051;-68
2023/12/04 03:50:27;;;;;;;51.38;20.83;;;;;;;-4.76;100.00;96609.81;5064937;28;20062;-70
2023/12/04 03:52:52;;;;;;;51.13;19.73;;;;;;;-4.71;100.00;96615.13;5055078;28;20041;-70
2023/12/04 03:55:19;;;;;;;50.13;21.00;;;;;;;-4.78;100.00;96608.47;5051959;28;20106;-70
2023/12/04 03:57:45;;;;;;;54.75;19.65;;;;;;;-4.83;100.00;96609.28;5050706;28;20045;-69
2023/12/04 04:00:11;;;;;;;54.92;21.88;;;;;;;-4.81;100.00;96613.31;5045744;28;20484;-70
2023/12/04 04:02:39;;;;;;;56.45;20.83;;;;;;;-4.76;100.00;96609.81;5048697;28;20114;-69
2023/12/04 04:05:04;;;;;;;56.72;21.40;;;;;;;-4.77;100.00;96596.72;5047092;28;20043;-70
2023/12/04 04:07:30;;;;;;;53.95;21.33;;;;;;;-4.75;100.00;96606.06;5027639;28;20048;-70
2023/12/04 04:09:55;;;;;;;51.95;20.63;;;;;;;-4.73;100.00;96603.91;5049767;28;20041;-71
2023/12/04 04:12:21;;;;;;;58.60;21.75;;;;;;;-4.71;100.00;96606.31;5047302;28;20048;-71
2023/12/04 04:14:47;;;;;;;51.33;21.33;;;;;;;-4.79;100.00;96602.31;5048422;28;20049;-73
2023/12/04 04:17:12;;;;;;;54.08;20.92;;;;;;;-4.82;100.00;96598.31;5043796;28;20478;-71
2023/12/04 04:19:37;;;;;;;50.95;20.20;;;;;;;-4.80;100.00;96601.53;5045949;28;20115;-70
2023/12/04 04:22:03;;;;;;;56.03;20.90;;;;;;;-4.87;100.00;96587.66;5024280;28;20466;-69
2023/12/04 04:24:28;;;;;;;57.45;20.70;;;;;;;-4.92;100.00;96586.84;5040600;28;20044;-71
2023/12/04 04:26:54;;;;;;;58.78;20.63;;;;;;;-4.92;100.00;96587.66;5048672;28;20056;-71
2023/12/04 04:29:19;;;;;;;52.47;20.38;;;;;;;-4.90;100.00;96584.72;5041718;28;20062;-73
2023/12/04 04:31:44;;;;;;;55.90;20.17;;;;;;;-4.92;100.00;96570.81;5054174;28;20033;-69
2023/12/04 04:34:10;;;;;;;52.00;20.02;;;;;;;-4.95;100.00;96574.84;5047080;28;20038;-69
2023/12/04 04:36:35;;;;;;;54.50;21.25;;;;;;;-4.88;100.00;96571.88;5046620;28;20047;-69
2023/12/04 04:39:01;;;;;;;51.30;20.58;;;;;;;-4.81;100.00;96572.41;5056157;28;20436;-72
2023/12/04 04:41:26;;;;;;;53.85;20.10;;;;;;;-4.77;100.00;96569.97;5050802;28;20111;-73
2023/12/04 04:43:53;;;;;;;49.50;20.05;;;;;;;-4.68;100.00;96576.38;5075847;28;20056;-71
2023/12/04 04:46:18;;;;;;;52.85;20.63;;;;;;;-4.75;100.00;96560.66;5089835;28;20047;-72
2023/12/04 04:48:43;;;;;;;58.13;20.52;;;;;;;-4.76;100.00;96577.72;5094413;28;20044;-70
2023/12/04 04:51:09;;;;;;;56.08;20.13;;;;;;;-4.71;100.00;96575.06;5074002;28;20115;-69
2023/12/04 04:53:34;;;;;;;56.00;20.05;;;;;;;-4.77;100.00;96562.78;5078095;28;20655;-70
2023/12/04 04:56:00;;;;;;;47.72;18.27;;;;;;;-4.83;100.00;96559.31;5089821;28;20140;-70
2023/12/04 04:58:25;;;;;;;44.83;18.60;;;;;;;-4.81;100.00;96557.19;5075185;28;20059;-70
2023/12/04 05:00:50;;;;;;;49.03;18.38;;;;;;;-4.84;100.00;96554.25;5071152;28;20036;-70
2023/12/04 05:03:16;;;;;;;52.13;19.67;;;;;;;-4.83;100.00;96555.84;5066907;28;20044;-72
2023/12/04 05:05:41;;;;;;;44.75;18.42;;;;;;;-4.82;100.00;96546.78;5062899;28;20099;-71
2023/12/04 05:08:07;;;;;;;56.45;19.95;;;;;;;-4.86;100.00;96548.34;5071307;28;20043;-70
2023/12/04 05:10:32;;;;;;;43.05;18.10;;;;;;;-4.91;100.00;96543.06;5074665;28;20093;-71
2023/12/04 05:12:58;;;;;;;44.25;19.10;;;;;;;-4.90;100.00;96544.63;5048512;28;20032;-71
2023/12/04 05:15:23;;;;;;;49.45;19.08;;;;;;;-4.90;100.00;96550.78;5058508;28;20721;-71
2023/12/04 05:17:48;;;;;;;52.33;18.73;;;;;;;-4.91;100.00;96546.50;5071216;28;20051;-71
2023/12/04 05:20:14;;;;;;;52.25;19.45;;;;;;;-4.88;100.00;96542.50;5067063;28;20033;-70
2023/12/04 05:22:40;;;;;;;50.55;19.50;;;;;;;-4.86;100.00;96535.00;5061405;28;20105;-71
2023/12/04 05:25:06;;;;;;;49.22;19.02;;;;;;;-4.91;100.00;96543.06;5057162;28;20040;-69
2023/12/04 05:27:31;;;;;;;48.67;19.88;;;;;;;-4.83;100.00;96545.94;5072582;28;20045;-70
2023/12/04 05:29:57;;;;;;;41.25;17.38;;;;;;;-4.85;100.00;96541.97;5062102;28;20090;-73
2023/12/04 05:32:22;;;;;;;51.33;19.60;;;;;;;-4.85;100.00;96523.25;5071653;28;20257;-72
2023/12/04 05:34:48;;;;;;;51.33;20.00;;;;;;;-4.83;100.00;96526.44;5071212;28;20104;-69
2023/12/04 05:37:13;;;;;;;48.83;19.63;;;;;;;-4.86;100.00;96527.81;5078011;28;20364;-71
2023/12/04 05:39:38;;;;;;;44.55;18.88;;;;;;;-4.88;100.00;96529.94;5079054;28;20048;-70
2023/12/04 05:42:04;;;;;;;45.03;17.52;;;;;;;-5.07;100.00;96529.72;5059216;28;20040;-71
2023/12/04 05:44:30;;;;;;;48.33;17.67;;;;;;;-5.08;100.00;96528.09;5047334;28;20387;-70
2023/12/04 05:46:56;;;;;;;45.45;17.30;;;;;;;-5.41;100.00;96524.16;5068425;28;20041;-70
2023/12/04 05:49:21;;;;;;;42.38;17.38;;;;;;;-5.32;100.00;96517.22;5054753;28;20157;-71
2023/12/04 05:51:46;;;;;;;43.45;17.38;;;;;;;-5.26;100.00;96516.16;5075658;28;20076;-69
2023/12/04 05:54:12;;;;;;;49.28;18.20;;;;;;;-5.42;100.00;96512.69;5036852;28;20033;-70
2023/12/04 05:56:37;;;;;;;48.85;18.88;;;;;;;-5.66;100.00;96517.75;5066033;28;20483;-70
2023/12/04 05:59:03;;;;;;;49.25;19.90;;;;;;;-5.96;100.00;96502.56;5067588;28;20220;-70
2023/12/04 06:01:28;;;;;;;47.17;18.98;;;;;;;-5.93;100.00;96509.22;5065943;28;20411;-71
2023/12/04 06:03:54;;;;;;;47.58;20.10;;;;;;;-6.14;100.00;96495.88;5075728;28;20084;-70
2023/12/04 06:06:19;;;;;;;51.33;20.27;;;;;;;-6.14;100.00;96495.88;5064337;28;20621;-70
2023/12/04 06:08:44;;;;;;;47.00;18.65;;;;;;;-5.95;100.00;96498.81;5072541;28;20131;-70
2023/12/04 06:11:10;;;;;;;57.67;22.92;;;;;;;-6.28;100.00;96498.25;5051776;28;20512;-71
2023/12/04 06:13:35;;;;;;;56.60;22.33;;;;;;;-6.52;100.00;96492.59;5064442;28;20139;-69
2023/12/04 06:16:01;;;;;;;54.33;21.95;;;;;;;-6.60;100.00;96496.56;5070628;28;20121;-70
2023/12/04 06:18:27;;;;;;;58.65;23.77;;;;;;;-6.64;100.00;96492.84;5059965;28;20390;-71
2023/12/04 06:20:52;;;;;;;57.25;21.52;;;;;;;-6.54;100.00;96487.50;5048150;28;20033;-73
2023/12/04 06:23:19;;;;;;;55.17;21.63;;;;;;;-6.53;100.00;96480.34;5050745;28;20036;-70
2023/12/04 06:25:44;;;;;;;57.88;21.95;;;;;;;-6.60;100.00;96479.78;5054024;28;20127;-72
2023/12/04 06:28:10;;;;;;;59.72;23.45;;;;;;;-6.69;100.00;96466.19;5066508;28;20187;-69
2023/12/04 06:30:36;;;;;;;53.65;21.77;;;;;;;-6.53;100.00;96467.03;5072592;28;20032;-73
2023/12/04 06:33:02;;;;;;;55.45;19.33;;;;;;;-6.27;100.00;96467.88;5084705;28;20060;-70
2023/12/04 06:35:28;;;;;;;57.60;23.17;;;;;;;-6.27;100.00;96470.53;5078336;28;20490;-72
2023/12/04 06:37:54;;;;;;;49.20;21.83;;;;;;;-6.48;100.00;96471.53;5064700;28;20048;-71
2023/12/04 06:40:20;;;;;;;61.28;21.98;;;;;;;-6.61;100.00;96471.00;5064300;28;20040;-70
2023/12/04 06:42:46;;;;;;;56.80;22.00;;;;;;;-6.80;100.00;96468.00;5061211;28;20119;-71
2023/12/04 06:45:12;;;;;;;60.47;23.55;;;;;;;-6.95;100.00;96465.25;5040440;28;20514;-71
2023/12/04 06:47:40;;;;;;;57.13;22.55;;;;;;;-6.88;100.00;96454.38;5069992;28;20182;-71
2023/12/04 06:50:06;;;;;;;65.15;23.08;;;;;;;-6.80;100.00;96462.69;5058508;28;20044;-71
2023/12/04 06:52:31;;;;;;;64.60;23.02;;;;;;;-6.75;100.00;96454.72;5060888;28;20761;-72
2023/12/04 06:54:57;;;;;;;64.05;23.20;;;;;;;-6.88;100.00;96447.19;5063144;28;20071;-72
2023/12/04 06:57:22;;;;;;;67.03;23.50;;;;;;;-6.76;100.00;96436.31;5070350;28;20040;-73
2023/12/04 06:59:47;;;;;;;55.88;21.95;;;;;;;-6.80;100.00;96436.03;5080961;28;20044;-70
2023/12/04 07:02:13;;;;;;;59.85;23.67;;;;;;;-6.87;100.00;96440.81;5062725;28;20032;-72
2023/12/04 07:04:39;;;;;;;76.35;26.77;;;;;;;-6.98;100.00;96436.53;5047528;28;20040;-72
2023/12/04 07:07:05;;;;;;;79.47;26.67;;;;;;;-6.85;100.00;96435.22;5064857;28;20071;-71
2023/12/04 07:09:34;;;;;;;79.38;26.33;;;;;;;-6.92;100.00;96422.16;5061756;28;20414;-73
2023/12/04 07:12:00;;;;;;;96.40;28.70;;;;;;;-7.09;100.00;96413.56;5060249;28;20091;-72
2023/12/04 07:14:26;;;;;;;90.75;27.92;;;;;;;-7.25;100.00;96420.72;5058170;28;20036;-73
2023/12/04 07:16:51;;;;;;;96.85;28.77;;;;;;;-7.31;100.00;96403.88;5043131;28;20040;-72
2023/12/04 07:19:17;;;;;;;101.65;28.60;;;;;;;-7.30;100.00;96403.63;5053474;28;20044;-71
2023/12/04 07:21:42;;;;;;;107.07;28.70;;;;;;;-7.47;100.00;96402.22;5053224;28;20043;-72
2023/12/04 07:24:08;;;;;;;104.22;27.90;;;;;;;-7.43;100.00;96406.00;5053741;28;20048;-71
2023/12/04 07:26:35;;;;;;;93.13;28.23;;;;;;;-7.27;100.00;96436.09;5030745;28;20076;-72
2023/12/04 07:29:01;;;;;;;91.57;27.98;;;;;;;-7.22;100.00;96436.97;5058316;28;20115;-73
2023/12/04 07:31:26;;;;;;;95.95;26.40;;;;;;;-7.17;100.00;96446.81;5030892;28;20045;-72
2023/12/04 07:33:53;;;;;;;98.90;28.88;;;;;;;-7.04;100.00;96443.69;5060347;28;20071;-71
2023/12/04 07:36:19;;;;;;;88.53;28.92;;;;;;;-7.07;100.00;96446.06;5056658;28;20142;-72
2023/12/04 07:38:45;;;;;;;79.05;25.88;;;;;;;-6.57;100.00;96450.75;5061258;28;20483;-72
2023/12/04 07:41:10;;;;;;;97.32;28.00;;;;;;;-6.18;100.00;96447.59;5066885;28;20032;-70
2023/12/04 07:43:35;;;;;;;92.03;27.27;;;;;;;-6.06;100.00;96450.03;5080155;28;20101;-72
2023/12/04 07:46:01;;;;;;;88.38;26.77;;;;;;;-5.91;100.00;96443.88;5062044;28;20055;-75
2023/12/04 07:48:26;;;;;;;89.30;27.98;;;;;;;-5.53;100.00;96447.03;5075646;28;20044;-72
2023/12/04 07:50:52;;;;;;;86.03;26.50;;;;;;;-5.57;100.00;96443.31;5079020;28;20044;-71
2023/12/04 07:53:17;;;;;;;75.00;26.15;;;;;;;-6.23;100.00;96431.63;5067537;28;20556;-72
2023/12/04 07:55:43;;;;;;;86.00;27.90;;;;;;;-6.49;100.00;96428.13;5078613;28;20051;-71
2023/12/04 07:58:09;;;;;;;80.05;25.75;;;;;;;-6.68;100.00;96409.19;5076970;28;20039;-72
2023/12/04 08:00:34;;;;;;;73.70;23.52;;;;;;;-6.52;100.00;96420.66;5082567;28;20386;-72
2023/12/04 08:03:00;;;;;;;78.32;27.33;;;;;;;-6.69;100.00;96407.56;5061948;28;20179;-70
2023/12/04 08:05:27;;;;;;;83.95;28.60;;;;;;;-6.70;100.00;96411.28;5045248;28;20487;-70
2023/12/04 08:07:52;;;;;;;77.55;24.15;;;;;;;-6.47;100.00;96401.22;5074415;28;20179;-73
2023/12/04 08:10:18;;;;;;;85.25;27.70;;;;;;;-6.59;100.00;96382.81;5070661;28;20130;-71
2023/12/04 08:12:46;;;;;;;82.78;27.73;;;;;;;-6.40;100.00;96381.22;5060714;28;20125;-72
2023/12/04 08:15:12;;;;;;;81.03;31.35;;;;;;;-6.63;100.00;96369.22;5083842;28;20040;-73
2023/12/04 08:17:37;;;;;;;79.25;30.23;;;;;;;-6.43;100.00;96375.63;5090869;28;20043;-71
2023/12/04 08:20:04;;;;;;;74.55;25.52;;;;;;;-6.10;100.00;96384.97;5081918;28;20037;-70
2023/12/04 08:22:29;;;;;;;81.70;26.40;;;;;;;-6.24;100.00;96389.25;5079898;28;20032;-72
2023/12/04 08:24:55;;;;;;;78.45;28.30;;;;;;;-6.19;100.00;96390.03;5079260;28;20040;-71
2023/12/04 08:27:20;;;;;;;73.43;26.20;;;;;;;-5.95;100.00;96376.91;5076527;28;20270;-73
2023/12/04 08:29:45;;;;;;;75.60;24.20;;;;;;;-6.08;100.00;96374.84;5061926;28;20047;-72
2023/12/04 08:32:11;;;;;;;80.72;26.02;;;;;;;-5.92;100.00;96374.78;5056558;28;20736;-73
2023/12/04 08:34:37;;;;;;;73.97;24.27;;;;;;;-5.60;100.00;96390.47;5078582;28;20075;-72
2023/12/04 08:37:02;;;;;;;64.50;22.33;;;;;;;-5.26;100.00;96392.50;5077956;28;20032;-72
2023/12/04 08:39:28;;;;;;;69.15;23.83;;;;;;;-5.80;100.00;96389.47;5057170;28;20509;-72
2023/12/04 08:41:53;;;;;;;64.07;23.58;;;;;;;-5.74;100.00;96386.75;5076954;28;20036;-70
2023/12/04 08:44:18;;;;;;;74.70;23.80;;;;;;;-5.44;100.00;96384.03;5071932;28;20059;-74
2023/12/04 08:46:45;;;;;;;67.97;23.33;;;;;;;-5.41;100.00;96385.38;5067468;28;20040;-72
2023/12/04 08:49:10;;;;;;;70.45;23.20;;;;;;;-5.40;100.00;96386.97;5054760;28;20514;-72
2023/12/04 08:51:35;;;;;;;70.95;22.55;;;;;;;-5.04;100.00;96378.78;5080341;28;20044;-71
2023/12/04 08:54:01;;;;;;;68.00;24.50;;;;;;;-4.72;100.00;96374.91;5079286;28;20055;-72
2023/12/04 08:56:26;;;;;;;63.55;22.92;;;;;;;-4.71;100.00;96373.84;5071105;28;20043;-71
2023/12/04 08:58:52;;;;;;;69.28;23.65;;;;;;;-4.33;100.00;96382.94;5076791;28;20086;-71
2023/12/04 09:01:17;;;;;;;71.32;25.10;;;;;;;-3.94;100.00;96381.31;5057780;28;20054;-72
2023/12/04 09:03:43;;;;;;;54.20;23.33;;;;;;;-3.66;100.00;96361.75;5081906;28;20044;-72
2023/12/04 09:06:08;;;;;;;61.67;21.83;;;;;;;-3.54;100.00;96369.41;5075213;28;20131;-73
2023/12/04 09:08:36;;;;;;;54.67;20.95;;;;;;;-3.29;100.00;96388.97;5055545;28;20044;-72
2023/12/04 09:11:03;;;;;;;59.55;22.10;;;;;;;-3.24;100.00;96394.28;5089191;28;20064;-70
2023/12/04 09:13:30;;;;;;;51.13;20.80;;;;;;;-3.13;100.00;96384.25;5068398;28;20040;-70
2023/12/04 09:15:56;;;;;;;49.58;19.80;;;;;;;-3.52;100.00;96385.19;5072212;28;20075;-71
2023/12/04 09:18:21;;;;;;;54.60;20.38;;;;;;;-3.59;100.00;96382.84;5078127;28;20424;-71
2023/12/04 09:20:47;;;;;;;55.00;22.02;;;;;;;-4.31;100.00;96371.97;5097554;28;20044;-71
2023/12/04 09:23:12;;;;;;;57.15;21.08;;;;;;;-4.45;100.00;96385.16;5089449;28;20048;-73
2023/12/04 09:25:38;;;;;;;53.92;21.40;;;;;;;-4.71;100.00;96377.31;5087840;28;20046;-71
2023/12/04 09:28:03;;;;;;;48.47;20.58;;;;;;;-5.00;100.00;96387.88;5078630;28;20117;-70
2023/12/04 09:30:29;;;;;;;60.40;24.50;;;;;;;-5.07;100.00;96390.84;5084912;28;20131;-72
2023/12/04 09:32:54;;;;;;;64.05;24.08;;;;;;;-4.90;100.00;96393.16;5085282;28;20044;-73
2023/12/04 09:35:20;;;;;;;56.55;22.13;;;;;;;-5.15;100.00;96388.72;5083704;28;20044;-72
2023/12/04 09:37:45;;;;;;;62.35;22.88;;;;;;;-5.21;100.00;96389.81;5078558;28;20044;-71
2023/12/04 09:40:11;;;;;;;68.45;25.48;;;;;;;-4.94;100.00;96389.44;5059912;28;20655;-73
2023/12/04 09:42:38;;;;;;;62.17;23.77;;;;;;;-4.42;100.00;96392.63;5078208;28;20051;-72
2023/12/04 09:45:05;;;;;;;55.17;22.92;;;;;;;-4.79;100.00;96377.88;5079733;28;20127;-70
2023/12/04 09:47:32;;;;;;;59.10;24.30;;;;;;;-5.01;100.00;96368.38;5068867;28;20048;-72
2023/12/04 09:49:58;;;;;;;55.35;23.50;;;;;;;-4.87;100.00;96367.78;5089529;28;20074;-72
2023/12/04 09:52:27;;;;;;;64.43;24.50;;;;;;;-4.87;100.00;96371.25;5062818;28;20510;-72
2023/12/04 09:54:52;;;;;;;60.60;21.97;;;;;;;-4.79;100.00;96361.84;5063798;28;20044;-72
2023/12/04 09:57:18;;;;;;;60.08;22.02;;;;;;;-4.54;100.00;96354.75;5075456;28;20043;-71
2023/12/04 09:59:44;;;;;;;59.47;22.30;;;;;;;-4.61;100.00;96363.88;5093663;28;20059;-71
2023/12/04 10:02:10;;;;;;;53.10;21.33;;;;;;;-4.20;100.00;96353.97;5069430;28;20039;-72
2023/12/04 10:04:36;;;;;;;65.45;22.55;;;;;;;-3.44;100.00;96346.28;5083080;28;20478;-72
2023/12/04 10:07:02;;;;;;;59.13;22.33;;;;;;;-3.03;100.00;96351.94;5082942;28;20075;-69
2023/12/04 10:09:28;;;;;;;55.20;20.92;;;;;;;-2.76;100.00;96347.84;5077536;28;20063;-73
2023/12/04 10:11:55;;;;;;;59.17;22.30;;;;;;;-2.93;100.00;96353.72;5079704;28;20041;-70
2023/12/04 10:14:22;;;;;;;58.28;21.67;;;;;;;-2.57;100.00;96354.00;5066985;28;20043;-72
2023/12/04 10:16:49;;;;;;;52.63;20.98;;;;;;;-2.61;100.00;96361.06;5085576;28;20040;-72
2023/12/04 10:19:28;;;;;;;51.33;20.75;;;;;;;-2.22;100.00;96354.56;5061558;28;20040;-72
2023/12/04 10:22:00;;;;;;;52.75;20.63;;;;;;;-1.90;100.00;96350.28;5063383;28;20131;-70
2023/12/04 10:24:35;;;;;;;50.08;19.83;;;;;;;-1.61;100.00;96344.66;5057800;28;20071;-71
2023/12/04 10:27:09;;;;;;;44.70;18.75;;;;;;;-1.41;100.00;96340.00;5066506;28;20064;-71
2023/12/04 10:29:47;;;;;;;41.20;16.83;;;;;;;-1.29;100.00;96326.88;5062935;28;20098;-71
2023/12/04 10:32:13;;;;;;;44.85;18.48;;;;;;;-1.18;100.00;96328.25;5062019;28;20428;-72
2023/12/04 10:34:42;;;;;;;43.05;17.63;;;;;;;-1.17;100.00;96326.38;5084936;28;20038;-72
2023/12/04 10:37:10;;;;;;;45.45;20.40;;;;;;;-1.09;100.00;96320.28;5070792;28;20048;-72
2023/12/04 10:39:49;;;;;;;48.85;23.48;;;;;;;-1.48;100.00;96315.44;5084442;28;20494;-72
2023/12/04 10:42:24;;;;;;;46.13;21.23;;;;;;;-1.60;100.00;96310.56;5077140;28;20050;-73
2023/12/04 10:44:50;;;;;;;43.17;19.05;;;;;;;-3.20;100.00;96295.38;5066072;28;20477;-71
2023/12/04 10:47:16;;;;;;;43.10;17.80;;;;;;;-3.53;100.00;96298.72;5071430;28;20036;-72
2023/12/04 10:49:43;;;;;;;46.33;18.67;;;;;;;-3.99;100.00;96293.06;5080489;28;20036;-71
2023/12/04 10:52:09;;;;;;;53.42;23.63;;;;;;;-3.64;100.00;96273.13;5080846;28;20332;-72
2023/12/04 10:54:34;;;;;;;53.22;23.25;;;;;;;-3.48;100.00;96271.88;5065050;28;20101;-71
2023/12/04 10:57:03;;;;;;;46.90;19.25;;;;;;;-3.01;100.00;96265.91;5065105;28;20048;-72
2023/12/04 10:59:33;;;;;;;46.08;18.63;;;;;;;-2.15;100.00;96273.69;5063319;28;20044;-72
2023/12/04 11:02:02;;;;;;;42.35;17.52;;;;;;;-1.95;100.00;96283.25;5084102;28;20115;-70
2023/12/04 11:04:31;;;;;;;44.10;17.67;;;;;;;-1.66;100.00;96288.34;5078719;28;20070;-73